This is the latest recevied weather packets stored in our database for station/object KE9DBJ-13. If no packets are shown the sender has not sent any weather packets the latest 10 day(s).
| Time | Temp. | Humidity | Pressure | Rain* | Wind** | Luminosity | Snow |
|---|---|---|---|---|---|---|---|
| 1777924203 | 25° C | 46% | 1006.6 hPa | 0 mm | - | - | - |
| 1777923603 | 25.56° C | 44% | 1006.9 hPa | 0 mm | - | - | - |
| 1777923003 | 27.22° C | 41% | 1006.8 hPa | 0 mm | - | - | - |
| 1777922403 | 26.67° C | 43% | 1006.9 hPa | 0 mm | - | - | - |
| 1777921803 | 25.56° C | 46% | 1007.1 hPa | 0 mm | - | - | - |
| 1777921202 | 25.56° C | 49% | 1007.1 hPa | 0 mm | - | - | - |
| 1777920603 | 26.11° C | 49% | 1007.3 hPa | 0 mm | - | - | - |
| 1777920002 | 24.44° C | 52% | 1007.6 hPa | 0 mm | - | - | - |
| 1777919402 | 23.33° C | 54% | 1007.6 hPa | 0 mm | - | - | - |
| 1777918802 | 22.78° C | 56% | 1007.6 hPa | 0 mm | - | - | - |
| 1777918202 | 22.78° C | 54% | 1007.6 hPa | 0 mm | - | - | - |
| 1777917602 | 23.33° C | 54% | 1007.6 hPa | 0 mm | - | - | - |
| 1777917002 | 23.33° C | 53% | 1007.4 hPa | 0 mm | - | - | - |
| 1777916402 | 23.33° C | 52% | 1007.6 hPa | 0 mm | - | - | - |
| 1777915802 | 23.33° C | 51% | 1007.5 hPa | 0 mm | - | - | - |
| 1777915203 | 24.44° C | 48% | 1007.3 hPa | 0 mm | - | - | - |
| 1777914603 | 23.89° C | 52% | 1007.6 hPa | 0 mm | - | - | - |
| 1777914003 | 22.78° C | 54% | 1007.8 hPa | 0 mm | - | - | - |
| 1777913403 | 22.22° C | 56% | 1008.2 hPa | 0 mm | - | - | - |
| 1777912803 | 19.44° C | 66% | 1008 hPa | 0 mm | - | - | - |
| 1777912202 | 20° C | 64% | 1008 hPa | 0 mm | - | - | - |
| 1777911603 | 20.56° C | 56% | 1008.4 hPa | 0 mm | - | - | - |
| 1777911002 | 21.11° C | 57% | 1007.9 hPa | 0 mm | - | - | - |
| 1777910402 | 21.11° C | 58% | 1008.7 hPa | 0 mm | - | - | - |
| 1777909802 | 22.78° C | 52% | 1008.3 hPa | 0 mm | - | - | - |
* Rain latest hour (hover to see other rain measurements)
** Current wind speed in m/s (hover to see current wind gust speed)